createdAt,value
2018-01-15T00:00:59.682Z,997.07
2018-01-15T00:01:59.673Z,997.01
2018-01-15T00:02:59.668Z,997.04
2018-01-15T00:03:59.661Z,996.98
2018-01-15T00:04:59.654Z,997.03
2018-01-15T00:05:59.648Z,997.03
2018-01-15T00:06:59.646Z,997.00
2018-01-15T00:07:59.634Z,997.01
2018-01-15T00:08:59.633Z,997.01
2018-01-15T00:09:59.663Z,996.95
2018-01-15T00:10:59.620Z,996.92
2018-01-15T00:11:59.609Z,996.93
2018-01-15T00:12:59.602Z,996.91
2018-01-15T00:13:59.595Z,996.91
2018-01-15T00:14:59.589Z,996.87
2018-01-15T00:15:59.583Z,996.87
2018-01-15T00:16:59.574Z,996.92
2018-01-15T00:17:59.570Z,996.90
2018-01-15T00:18:59.563Z,996.93
2018-01-15T00:19:59.556Z,996.97
2018-01-15T00:20:59.549Z,996.98
2018-01-15T00:21:59.543Z,996.98
2018-01-15T00:22:59.539Z,996.97
2018-01-15T00:23:59.531Z,996.98
2018-01-15T00:24:59.522Z,996.96
2018-01-15T00:25:59.517Z,996.96
2018-01-15T00:26:59.510Z,996.93
2018-01-15T00:27:59.505Z,996.97
2018-01-15T00:28:59.498Z,996.95
2018-01-15T00:29:59.489Z,997.01
2018-01-15T00:30:59.483Z,997.03
2018-01-15T00:31:59.478Z,997.04
2018-01-15T00:32:59.472Z,997.02
2018-01-15T00:33:59.465Z,997.02
2018-01-15T00:34:59.459Z,997.05
2018-01-15T00:35:59.451Z,997.02
2018-01-15T00:36:59.446Z,997.05
2018-01-15T00:37:59.438Z,997.00
2018-01-15T00:38:59.431Z,997.00
2018-01-15T00:39:59.424Z,996.94
2018-01-15T00:40:59.418Z,996.95
2018-01-15T00:41:59.411Z,996.92
2018-01-15T00:42:59.406Z,996.94
2018-01-15T00:43:59.400Z,996.94
2018-01-15T00:44:59.393Z,996.93
2018-01-15T00:45:59.388Z,996.94
2018-01-15T00:46:59.379Z,996.92
2018-01-15T00:47:59.373Z,996.93
2018-01-15T00:48:59.368Z,996.86
2018-01-15T00:49:59.360Z,996.86
2018-01-15T00:50:59.355Z,996.82
2018-01-15T00:51:59.348Z,996.79
2018-01-15T00:52:59.343Z,996.77
2018-01-15T00:53:59.333Z,996.75
2018-01-15T00:54:59.329Z,996.76
2018-01-15T00:55:59.320Z,996.73
2018-01-15T00:56:59.315Z,996.68
2018-01-15T00:57:59.313Z,996.66
2018-01-15T00:58:59.301Z,996.63
2018-01-15T00:59:59.301Z,996.64
2018-01-15T01:00:59.321Z,996.65
2018-01-15T01:01:59.283Z,996.63
2018-01-15T01:02:59.276Z,996.66
2018-01-15T01:03:59.282Z,996.64
2018-01-15T01:04:59.264Z,996.65
2018-01-15T01:05:59.256Z,996.59
2018-01-15T01:06:59.252Z,996.61
2018-01-15T01:07:59.245Z,996.59
2018-01-15T01:08:59.238Z,996.59
2018-01-15T01:09:59.231Z,996.59
2018-01-15T01:10:59.224Z,996.60
2018-01-15T01:11:59.218Z,996.60
2018-01-15T01:12:59.212Z,996.58
2018-01-15T01:13:59.205Z,996.53
2018-01-15T01:14:59.198Z,996.55
2018-01-15T01:15:59.192Z,996.53
2018-01-15T01:16:59.187Z,996.53
2018-01-15T01:17:59.179Z,996.48
2018-01-15T01:18:59.173Z,996.51
2018-01-15T01:19:59.167Z,996.49
2018-01-15T01:20:59.161Z,996.45
2018-01-15T01:21:59.151Z,996.46
2018-01-15T01:22:59.145Z,996.42
2018-01-15T01:23:59.142Z,996.43
2018-01-15T01:24:59.135Z,996.45
2018-01-15T01:25:59.127Z,996.42
2018-01-15T01:26:59.122Z,996.44
2018-01-15T01:27:59.116Z,996.48
2018-01-15T01:28:59.109Z,996.46
2018-01-15T01:29:59.101Z,996.44
2018-01-15T01:30:59.094Z,996.47
2018-01-15T01:31:59.090Z,996.45
2018-01-15T01:32:59.085Z,996.42
2018-01-15T01:33:59.076Z,996.44
2018-01-15T01:34:59.067Z,996.43
2018-01-15T01:35:59.062Z,996.45
2018-01-15T01:36:59.058Z,996.46
2018-01-15T01:37:59.050Z,996.44
2018-01-15T01:38:59.044Z,996.42
2018-01-15T01:39:59.037Z,996.42
2018-01-15T01:40:59.032Z,996.38
2018-01-15T01:41:59.026Z,996.34
2018-01-15T01:42:59.017Z,996.37
2018-01-15T01:43:59.013Z,996.32
2018-01-15T01:44:59.039Z,996.31
2018-01-15T01:45:58.999Z,996.26
2018-01-15T01:46:58.992Z,996.29
2018-01-15T01:47:58.989Z,996.27
2018-01-15T01:48:58.980Z,996.24
2018-01-15T01:49:58.972Z,996.26
2018-01-15T01:50:58.966Z,996.26
2018-01-15T01:51:58.964Z,996.24
2018-01-15T01:52:58.954Z,996.19
2018-01-15T01:53:58.948Z,996.18
2018-01-15T01:54:58.941Z,996.13
2018-01-15T01:55:58.938Z,996.15
2018-01-15T01:56:58.929Z,996.11
2018-01-15T01:57:58.922Z,996.08
2018-01-15T01:58:58.916Z,996.05
2018-01-15T01:59:58.911Z,996.06
2018-01-15T02:00:58.903Z,996.06
2018-01-15T02:01:58.898Z,996.07
2018-01-15T02:02:58.890Z,996.07
2018-01-15T02:03:58.885Z,996.09
2018-01-15T02:04:58.876Z,996.09
2018-01-15T02:05:58.871Z,996.12
2018-01-15T02:06:58.865Z,996.10
2018-01-15T02:07:58.860Z,996.08
2018-01-15T02:08:58.851Z,996.06
2018-01-15T02:09:58.843Z,996.09
2018-01-15T02:10:58.839Z,996.05
2018-01-15T02:11:58.833Z,996.04
2018-01-15T02:12:58.830Z,996.06
2018-01-15T02:13:58.819Z,996.05
2018-01-15T02:14:58.810Z,996.04
2018-01-15T02:15:58.809Z,996.08
2018-01-15T02:16:58.802Z,996.01
2018-01-15T02:17:58.793Z,996.04
2018-01-15T02:18:58.788Z,996.03
2018-01-15T02:19:58.781Z,996.06
2018-01-15T02:20:58.775Z,996.05
2018-01-15T02:21:58.767Z,996.04
2018-01-15T02:22:58.763Z,996.06
2018-01-15T02:23:58.754Z,996.07
2018-01-15T02:24:58.749Z,996.07
2018-01-15T02:25:58.742Z,996.08
2018-01-15T02:26:58.737Z,996.09
2018-01-15T02:27:58.731Z,996.14
2018-01-15T02:28:58.724Z,996.10
2018-01-15T02:29:58.719Z,996.11
2018-01-15T02:30:58.709Z,996.11
2018-01-15T02:31:58.704Z,996.08
2018-01-15T02:32:58.699Z,996.06
2018-01-15T02:33:58.690Z,996.06
2018-01-15T02:34:58.684Z,996.06
2018-01-15T02:35:58.682Z,996.03
2018-01-15T02:36:58.673Z,996.02
2018-01-15T02:37:58.664Z,995.98
2018-01-15T02:38:58.721Z,995.97
2018-01-15T02:39:58.654Z,995.96
2018-01-15T02:40:58.646Z,995.91
2018-01-15T02:41:58.641Z,995.95
2018-01-15T02:42:58.635Z,995.88
2018-01-15T02:43:58.627Z,995.91
2018-01-15T02:44:58.622Z,995.88
2018-01-15T02:45:58.614Z,995.87
2018-01-15T02:46:58.609Z,995.82
2018-01-15T02:47:58.601Z,995.81
2018-01-15T02:48:58.596Z,995.85
2018-01-15T02:49:58.590Z,995.80
2018-01-15T02:50:58.583Z,995.85
2018-01-15T02:51:58.577Z,995.87
2018-01-15T02:52:58.570Z,995.82
2018-01-15T02:53:58.564Z,995.80
2018-01-15T02:54:58.562Z,995.78
2018-01-15T02:55:58.551Z,995.76
2018-01-15T02:56:58.545Z,995.78
2018-01-15T02:57:58.539Z,995.76
2018-01-15T02:58:58.533Z,995.76
2018-01-15T02:59:58.525Z,995.74
2018-01-15T03:00:58.520Z,995.75
2018-01-15T03:01:58.511Z,995.77
2018-01-15T03:02:58.508Z,995.79
2018-01-15T03:03:58.499Z,995.78
2018-01-15T03:04:58.494Z,995.73
2018-01-15T03:05:58.492Z,995.75
2018-01-15T03:06:58.487Z,995.72
2018-01-15T03:07:58.475Z,995.70
2018-01-15T03:08:58.470Z,995.70
2018-01-15T03:09:58.460Z,995.74
2018-01-15T03:10:58.454Z,995.70
2018-01-15T03:11:58.449Z,995.69
2018-01-15T03:12:58.444Z,995.70
2018-01-15T03:13:58.435Z,995.71
2018-01-15T03:14:58.429Z,995.67
2018-01-15T03:15:58.424Z,995.66
2018-01-15T03:16:58.417Z,995.69
2018-01-15T03:17:58.409Z,995.66
2018-01-15T03:18:58.404Z,995.62
2018-01-15T03:19:58.398Z,995.56
2018-01-15T03:20:58.392Z,995.55
2018-01-15T03:21:58.383Z,995.61
2018-01-15T03:22:58.377Z,995.54
2018-01-15T03:23:58.371Z,995.52
2018-01-15T03:24:58.365Z,995.50
2018-01-15T03:25:58.357Z,995.45
2018-01-15T03:26:58.353Z,995.47
2018-01-15T03:27:58.347Z,995.54
2018-01-15T03:28:58.340Z,995.46
2018-01-15T03:29:58.332Z,995.49
2018-01-15T03:30:58.327Z,995.46
2018-01-15T03:31:58.321Z,995.45
2018-01-15T03:32:58.315Z,995.47
2018-01-15T03:33:58.307Z,995.42
2018-01-15T03:34:58.302Z,995.42
2018-01-15T03:35:58.294Z,995.42
2018-01-15T03:36:58.288Z,995.38
2018-01-15T03:37:58.282Z,995.38
2018-01-15T03:38:58.275Z,995.38
2018-01-15T03:39:58.269Z,995.38
2018-01-15T03:40:58.261Z,995.36
2018-01-15T03:41:58.256Z,995.34
2018-01-15T03:42:58.251Z,995.37
2018-01-15T03:43:58.243Z,995.34
2018-01-15T03:44:58.237Z,995.35
2018-01-15T03:45:58.230Z,995.37
2018-01-15T03:46:58.223Z,995.39
2018-01-15T03:47:58.217Z,995.39
2018-01-15T03:48:58.212Z,995.39
2018-01-15T03:49:58.205Z,995.34
2018-01-15T03:50:58.197Z,995.32
2018-01-15T03:51:58.192Z,995.28
2018-01-15T03:52:58.185Z,995.25
2018-01-15T03:53:58.179Z,995.24
2018-01-15T03:54:58.173Z,995.22
2018-01-15T03:55:58.168Z,995.18
2018-01-15T03:56:58.160Z,995.14
2018-01-15T03:57:58.150Z,995.17
2018-01-15T03:58:58.145Z,995.14
2018-01-15T03:59:58.140Z,995.14
2018-01-15T04:00:58.134Z,995.17
2018-01-15T04:01:58.128Z,995.13
2018-01-15T04:02:58.119Z,995.10
2018-01-15T04:03:58.114Z,995.07
2018-01-15T04:04:58.109Z,995.06
2018-01-15T04:05:58.101Z,995.01
2018-01-15T04:06:58.095Z,994.99
2018-01-15T04:07:58.091Z,994.96
2018-01-15T04:08:58.082Z,994.95
2018-01-15T04:09:58.076Z,994.94
2018-01-15T04:10:58.068Z,994.91
2018-01-15T04:11:58.063Z,994.92
2018-01-15T04:12:58.056Z,994.89
2018-01-15T04:13:58.049Z,994.88
2018-01-15T04:14:58.044Z,994.83
2018-01-15T04:15:58.038Z,994.82
2018-01-15T04:16:58.031Z,994.78
2018-01-15T04:17:58.024Z,994.82
2018-01-15T04:18:58.018Z,994.77
2018-01-15T04:19:58.013Z,994.75
2018-01-15T04:20:58.005Z,994.75
2018-01-15T04:21:57.999Z,994.77
2018-01-15T04:22:57.992Z,994.76
2018-01-15T04:23:57.987Z,994.74
2018-01-15T04:24:57.981Z,994.74
2018-01-15T04:25:57.975Z,994.73
2018-01-15T04:26:57.966Z,994.70
2018-01-15T04:27:57.962Z,994.69
2018-01-15T04:28:57.955Z,994.71
2018-01-15T04:29:57.949Z,994.67
2018-01-15T04:30:57.943Z,994.69
2018-01-15T04:31:57.935Z,994.70
2018-01-15T04:32:57.931Z,994.70
2018-01-15T04:33:57.922Z,994.70
2018-01-15T04:34:57.917Z,994.69
2018-01-15T04:35:57.910Z,994.64
2018-01-15T04:36:57.905Z,994.67
2018-01-15T04:37:57.897Z,994.67
2018-01-15T04:38:57.891Z,994.66
2018-01-15T04:39:57.885Z,994.67
2018-01-15T04:40:57.878Z,994.67
2018-01-15T04:41:57.872Z,994.64
2018-01-15T04:42:57.866Z,994.64
2018-01-15T04:43:57.859Z,994.65
2018-01-15T04:44:57.854Z,994.67
2018-01-15T04:45:57.847Z,994.71
2018-01-15T04:46:57.842Z,994.70
2018-01-15T04:47:57.840Z,994.65
2018-01-15T04:48:57.830Z,994.65
2018-01-15T04:49:57.822Z,994.60
2018-01-15T04:50:57.817Z,994.61
2018-01-15T04:51:57.809Z,994.61
2018-01-15T04:52:57.806Z,994.60
2018-01-15T04:53:57.799Z,994.59
2018-01-15T04:54:57.789Z,994.56
2018-01-15T04:55:57.784Z,994.58
2018-01-15T04:56:57.782Z,994.61
2018-01-15T04:57:57.770Z,994.62
2018-01-15T04:58:57.766Z,994.62
2018-01-15T04:59:57.758Z,994.64
2018-01-15T05:00:57.751Z,994.61
2018-01-15T05:01:57.742Z,994.55
2018-01-15T05:02:57.736Z,994.58
2018-01-15T05:03:57.729Z,994.57
2018-01-15T05:04:57.723Z,994.61
2018-01-15T05:05:57.719Z,994.57
2018-01-15T05:06:57.707Z,994.52
2018-01-15T05:07:57.700Z,994.52
2018-01-15T05:08:57.693Z,994.56
2018-01-15T05:09:57.685Z,994.54
2018-01-15T05:10:57.678Z,994.50
2018-01-15T05:11:57.670Z,994.51
2018-01-15T05:12:57.663Z,994.48
2018-01-15T05:13:57.654Z,994.51
2018-01-15T05:14:57.647Z,994.48
2018-01-15T05:15:57.640Z,994.47
2018-01-15T05:16:57.633Z,994.53
2018-01-15T05:17:57.623Z,994.47
2018-01-15T05:18:57.617Z,994.43
2018-01-15T05:19:57.610Z,994.42
2018-01-15T05:20:57.602Z,994.37
2018-01-15T05:21:57.593Z,994.35
2018-01-15T05:22:57.586Z,994.37
2018-01-15T05:23:57.578Z,994.35
2018-01-15T05:24:57.572Z,994.33
2018-01-15T05:25:57.563Z,994.35
2018-01-15T05:26:57.555Z,994.31
2018-01-15T05:27:57.548Z,994.31
2018-01-15T05:28:57.539Z,994.36
2018-01-15T05:29:57.531Z,994.33
2018-01-15T05:30:57.525Z,994.30
2018-01-15T05:31:57.517Z,994.32
2018-01-15T05:32:57.509Z,994.31
2018-01-15T05:33:57.503Z,994.29
2018-01-15T05:34:57.492Z,994.31
2018-01-15T05:35:57.510Z,994.26
2018-01-15T05:36:57.481Z,994.20
2018-01-15T05:37:57.470Z,994.16
2018-01-15T05:38:57.463Z,994.14
2018-01-15T05:39:57.453Z,994.15
2018-01-15T05:40:57.449Z,994.09
2018-01-15T05:41:57.438Z,994.07
2018-01-15T05:42:57.434Z,994.07
2018-01-15T05:43:57.424Z,994.06
2018-01-15T05:44:57.414Z,994.05
2018-01-15T05:45:57.407Z,993.97
2018-01-15T05:46:57.400Z,993.93
2018-01-15T05:47:57.391Z,993.90
2018-01-15T05:48:57.385Z,993.88
2018-01-15T05:49:57.375Z,993.85
2018-01-15T05:50:57.368Z,993.89
2018-01-15T05:51:57.360Z,993.90
2018-01-15T05:52:57.354Z,993.90
2018-01-15T05:53:57.351Z,993.97
2018-01-15T05:54:57.338Z,993.98
2018-01-15T05:55:57.332Z,994.02
2018-01-15T05:56:57.324Z,994.05
2018-01-15T05:57:57.314Z,994.03
2018-01-15T05:58:57.306Z,994.03
2018-01-15T05:59:57.299Z,994.03
2018-01-15T06:00:57.292Z,994.02
2018-01-15T06:01:57.285Z,994.04
2018-01-15T06:02:57.277Z,994.00
2018-01-15T06:03:57.270Z,993.97
2018-01-15T06:04:57.261Z,993.97
2018-01-15T06:05:57.252Z,993.91
2018-01-15T06:06:57.246Z,993.90
2018-01-15T06:07:57.239Z,993.85
2018-01-15T06:08:57.229Z,993.81
2018-01-15T06:09:57.221Z,993.80
2018-01-15T06:10:57.214Z,993.78
2018-01-15T06:11:57.211Z,993.76
2018-01-15T06:12:57.199Z,993.74
2018-01-15T06:13:57.190Z,993.74
2018-01-15T06:14:57.182Z,993.73
2018-01-15T06:15:57.176Z,993.70
2018-01-15T06:16:57.167Z,993.77
2018-01-15T06:17:57.159Z,993.78
2018-01-15T06:18:57.151Z,993.75
2018-01-15T06:19:57.146Z,993.72
2018-01-15T06:20:57.165Z,993.72
2018-01-15T06:21:57.129Z,993.71
2018-01-15T06:22:57.146Z,993.71
2018-01-15T06:23:57.115Z,993.72
2018-01-15T06:24:57.104Z,993.69
2018-01-15T06:25:57.095Z,993.69
2018-01-15T06:26:57.087Z,993.68
2018-01-15T06:27:57.078Z,993.68
2018-01-15T06:28:57.074Z,993.70
2018-01-15T06:29:57.064Z,993.72
2018-01-15T06:30:57.056Z,993.75
2018-01-15T06:31:57.050Z,993.73
2018-01-15T06:32:57.040Z,993.71
2018-01-15T06:33:57.032Z,993.76
2018-01-15T06:34:57.024Z,993.76
2018-01-15T06:35:57.016Z,993.74
2018-01-15T06:36:57.010Z,993.76
2018-01-15T06:37:57.001Z,993.73
2018-01-15T06:38:56.993Z,993.78
2018-01-15T06:39:56.992Z,993.75
2018-01-15T06:40:56.977Z,993.73
2018-01-15T06:41:56.968Z,993.80
2018-01-15T06:42:56.961Z,993.75
2018-01-15T06:43:56.953Z,993.78
2018-01-15T06:44:56.945Z,993.72
2018-01-15T06:45:56.937Z,993.75
2018-01-15T06:46:56.930Z,993.73
2018-01-15T06:47:56.921Z,993.71
2018-01-15T06:48:56.916Z,993.71
2018-01-15T06:49:56.905Z,993.69
2018-01-15T06:50:56.897Z,993.72
2018-01-15T06:51:56.890Z,993.70
2018-01-15T06:52:56.882Z,993.73
2018-01-15T06:53:56.876Z,993.78
2018-01-15T06:54:56.867Z,993.75
2018-01-15T06:55:56.860Z,993.79
2018-01-15T06:56:56.851Z,993.81
2018-01-15T06:57:56.844Z,993.83
2018-01-15T06:58:56.837Z,993.82
2018-01-15T06:59:56.828Z,993.81
2018-01-15T07:00:56.821Z,993.78
2018-01-15T07:01:56.810Z,993.77
2018-01-15T07:02:56.868Z,993.77
2018-01-15T07:03:56.795Z,993.76
2018-01-15T07:04:56.788Z,993.77
2018-01-15T07:05:56.780Z,993.80
2018-01-15T07:06:56.770Z,993.78
2018-01-15T07:07:56.762Z,993.79
2018-01-15T07:08:56.759Z,993.81
2018-01-15T07:09:56.746Z,993.81
2018-01-15T07:10:56.739Z,993.84
2018-01-15T07:11:56.732Z,993.80
2018-01-15T07:12:56.725Z,993.84
2018-01-15T07:13:56.715Z,993.87
2018-01-15T07:14:56.707Z,993.88
2018-01-15T07:15:56.699Z,993.88
2018-01-15T07:16:56.693Z,993.85
2018-01-15T07:17:56.682Z,993.86
2018-01-15T07:18:56.676Z,993.88
2018-01-15T07:19:56.668Z,993.87
2018-01-15T07:20:56.661Z,993.87
2018-01-15T07:21:56.650Z,993.82
2018-01-15T07:22:56.646Z,993.84
2018-01-15T07:23:56.637Z,993.86
2018-01-15T07:24:56.630Z,993.84
2018-01-15T07:25:56.620Z,993.82
2018-01-15T07:26:56.614Z,993.81
2018-01-15T07:27:56.605Z,993.83
2018-01-15T07:28:56.595Z,993.81
2018-01-15T07:29:56.590Z,993.81
2018-01-15T07:30:56.581Z,993.79
2018-01-15T07:31:56.572Z,993.80
2018-01-15T07:32:56.564Z,993.75
2018-01-15T07:33:56.555Z,993.75
2018-01-15T07:34:56.550Z,993.75
2018-01-15T07:35:56.541Z,993.74
2018-01-15T07:36:56.534Z,993.73
2018-01-15T07:37:56.525Z,993.68
2018-01-15T07:38:56.517Z,993.72
2018-01-15T07:39:56.509Z,993.74
2018-01-15T07:40:56.501Z,993.69
2018-01-15T07:41:56.493Z,993.71
2018-01-15T07:42:56.486Z,993.73
2018-01-15T07:43:56.479Z,993.73
2018-01-15T07:44:56.470Z,993.72
2018-01-15T07:45:56.462Z,993.70
2018-01-15T07:46:56.488Z,993.65
2018-01-15T07:47:56.451Z,993.62
2018-01-15T07:48:56.438Z,993.65
2018-01-15T07:49:56.429Z,993.57
2018-01-15T07:50:56.422Z,993.60
2018-01-15T07:51:56.414Z,993.58
2018-01-15T07:52:56.405Z,993.50
2018-01-15T07:53:56.400Z,993.48
2018-01-15T07:54:56.392Z,993.48
2018-01-15T07:55:56.385Z,993.44
2018-01-15T07:56:56.377Z,993.42
2018-01-15T07:57:56.367Z,993.46
2018-01-15T07:58:56.359Z,993.41
2018-01-15T07:59:56.351Z,993.42
2018-01-15T08:00:56.341Z,993.38
2018-01-15T08:01:56.333Z,993.36
2018-01-15T08:02:56.326Z,993.35
2018-01-15T08:03:56.317Z,993.34
2018-01-15T08:04:56.311Z,993.29
2018-01-15T08:05:56.301Z,993.30
2018-01-15T08:06:56.296Z,993.29
2018-01-15T08:07:56.286Z,993.27
2018-01-15T08:08:56.279Z,993.27
2018-01-15T08:09:56.270Z,993.28
2018-01-15T08:10:56.263Z,993.27
2018-01-15T08:11:56.257Z,993.23
2018-01-15T08:12:56.247Z,993.26
2018-01-15T08:13:56.239Z,993.32
2018-01-15T08:14:56.231Z,993.23
2018-01-15T08:15:56.222Z,993.23
2018-01-15T08:16:56.216Z,993.26
2018-01-15T08:17:56.207Z,993.25
2018-01-15T08:18:56.199Z,993.26
2018-01-15T08:19:56.190Z,993.21
2018-01-15T08:20:56.183Z,993.25
2018-01-15T08:21:56.175Z,993.19
2018-01-15T08:22:56.167Z,993.22
2018-01-15T08:23:56.165Z,993.22
2018-01-15T08:24:56.153Z,993.22
2018-01-15T08:25:56.142Z,993.20
2018-01-15T08:26:56.137Z,993.19
2018-01-15T08:27:56.141Z,993.21
2018-01-15T08:28:56.120Z,993.16
2018-01-15T08:29:56.111Z,993.19
2018-01-15T08:30:56.103Z,993.16
2018-01-15T08:31:56.096Z,993.15
2018-01-15T08:32:56.093Z,993.12
2018-01-15T08:33:56.082Z,993.14
2018-01-15T08:34:56.070Z,993.13
2018-01-15T08:35:56.065Z,993.09
2018-01-15T08:36:56.055Z,993.06
2018-01-15T08:37:56.052Z,993.02
2018-01-15T08:38:56.039Z,993.02
2018-01-15T08:39:56.032Z,992.97
2018-01-15T08:40:56.026Z,992.90
2018-01-15T08:41:56.016Z,992.87
2018-01-15T08:42:56.011Z,992.87
2018-01-15T08:43:56.001Z,992.87
2018-01-15T08:44:55.992Z,992.90
2018-01-15T08:45:55.984Z,992.85
2018-01-15T08:46:55.975Z,992.85
2018-01-15T08:47:55.969Z,992.84
2018-01-15T08:48:55.960Z,992.86
2018-01-15T08:49:55.952Z,992.82
2018-01-15T08:50:55.943Z,992.82
2018-01-15T08:51:55.936Z,992.79
2018-01-15T08:52:55.928Z,992.83
2018-01-15T08:53:55.919Z,992.75
2018-01-15T08:54:55.912Z,992.83
2018-01-15T08:55:55.906Z,992.77
2018-01-15T08:56:55.896Z,992.74
2018-01-15T08:57:55.890Z,992.70
2018-01-15T08:58:55.881Z,992.69
2018-01-15T08:59:55.873Z,992.65
2018-01-15T09:00:55.885Z,992.66
2018-01-15T09:01:55.858Z,992.62
2018-01-15T09:02:55.854Z,992.62
2018-01-15T09:03:55.841Z,992.61
2018-01-15T09:04:55.859Z,992.62
2018-01-15T09:05:55.825Z,992.53
2018-01-15T09:06:55.818Z,992.57
2018-01-15T09:07:55.808Z,992.53
2018-01-15T09:08:55.802Z,992.52
2018-01-15T09:09:55.792Z,992.48
2018-01-15T09:10:55.784Z,992.50
2018-01-15T09:11:55.781Z,992.48
2018-01-15T09:12:55.770Z,992.43
2018-01-15T09:13:55.760Z,992.44
2018-01-15T09:14:55.752Z,992.46
2018-01-15T09:15:55.748Z,992.43
2018-01-15T09:16:55.737Z,992.40
2018-01-15T09:17:55.730Z,992.37
2018-01-15T09:18:55.722Z,992.38
2018-01-15T09:19:55.713Z,992.31
2018-01-15T09:20:55.707Z,992.32
2018-01-15T09:21:55.697Z,992.32
2018-01-15T09:22:55.690Z,992.27
2018-01-15T09:23:55.682Z,992.32
2018-01-15T09:24:55.674Z,992.27
2018-01-15T09:25:55.664Z,992.30
2018-01-15T09:26:55.659Z,992.29
2018-01-15T09:27:55.651Z,992.31
2018-01-15T09:28:55.643Z,992.32
2018-01-15T09:29:55.633Z,992.31
2018-01-15T09:30:55.627Z,992.29
2018-01-15T09:31:55.619Z,992.29
2018-01-15T09:32:55.614Z,992.27
2018-01-15T09:33:55.603Z,992.26
2018-01-15T09:34:55.595Z,992.23
2018-01-15T09:35:55.586Z,992.23
2018-01-15T09:36:55.578Z,992.18
2018-01-15T09:37:55.569Z,992.14
2018-01-15T09:38:55.565Z,992.10
2018-01-15T09:39:55.578Z,992.10
2018-01-15T09:40:55.547Z,992.10
2018-01-15T09:41:55.556Z,992.15
2018-01-15T09:42:55.543Z,992.18
2018-01-15T09:43:55.523Z,992.24
2018-01-15T09:44:55.517Z,992.18
2018-01-15T09:45:55.506Z,992.16
2018-01-15T09:46:55.501Z,992.12
2018-01-15T09:47:55.490Z,992.12
2018-01-15T09:48:55.484Z,992.17
2018-01-15T09:49:55.474Z,992.17
2018-01-15T09:50:55.465Z,992.11
2018-01-15T09:51:55.459Z,992.14
2018-01-15T09:52:55.451Z,992.10
2018-01-15T09:53:55.445Z,992.12
2018-01-15T09:54:55.435Z,992.09
2018-01-15T09:55:55.427Z,992.08
2018-01-15T09:56:55.418Z,992.08
2018-01-15T09:57:55.410Z,992.07
2018-01-15T09:58:55.404Z,992.04
2018-01-15T09:59:55.396Z,992.04
2018-01-15T10:00:55.388Z,992.11
2018-01-15T10:01:55.379Z,992.03
2018-01-15T10:02:55.372Z,991.99
2018-01-15T10:03:55.363Z,991.97
2018-01-15T10:04:55.356Z,991.97
2018-01-15T10:05:55.347Z,992.01
2018-01-15T10:06:55.340Z,991.95
2018-01-15T10:07:55.332Z,991.92
2018-01-15T10:08:55.323Z,991.87
2018-01-15T10:09:55.315Z,991.82
2018-01-15T10:10:55.308Z,991.83
2018-01-15T10:11:55.301Z,991.76
2018-01-15T10:12:55.292Z,991.76
2018-01-15T10:13:55.283Z,991.79
2018-01-15T10:14:55.275Z,991.76
2018-01-15T10:15:55.268Z,991.78
2018-01-15T10:16:55.261Z,991.73
2018-01-15T10:17:55.251Z,991.76
2018-01-15T10:18:55.243Z,991.68
2018-01-15T10:19:55.235Z,991.72
2018-01-15T10:20:55.234Z,991.70
2018-01-15T10:21:55.223Z,991.66
2018-01-15T10:22:55.211Z,991.66
2018-01-15T10:23:55.203Z,991.68
2018-01-15T10:24:55.196Z,991.58
2018-01-15T10:25:55.189Z,991.51
2018-01-15T10:26:55.180Z,991.56
2018-01-15T10:27:55.171Z,991.48
2018-01-15T10:28:55.164Z,991.44
2018-01-15T10:29:55.155Z,991.46
2018-01-15T10:30:55.149Z,991.46
2018-01-15T10:31:55.141Z,991.35
2018-01-15T10:32:55.131Z,991.35
2018-01-15T10:33:55.123Z,991.38
2018-01-15T10:34:55.116Z,991.41
2018-01-15T10:35:55.107Z,991.44
2018-01-15T10:36:55.101Z,991.38
2018-01-15T10:37:55.091Z,991.38
2018-01-15T10:38:55.086Z,991.32
2018-01-15T10:39:55.077Z,991.34
2018-01-15T10:40:55.072Z,991.32
2018-01-15T10:41:55.060Z,991.29
2018-01-15T10:42:55.051Z,991.28
2018-01-15T10:43:55.044Z,991.21
2018-01-15T10:44:55.036Z,991.12
2018-01-15T10:45:55.028Z,991.11
2018-01-15T10:46:55.020Z,991.11
2018-01-15T10:47:55.014Z,991.12
2018-01-15T10:48:55.006Z,991.06
2018-01-15T10:49:54.996Z,991.09
2018-01-15T10:50:54.989Z,991.06
2018-01-15T10:51:54.982Z,990.99
2018-01-15T10:52:54.973Z,990.95
2018-01-15T10:53:54.964Z,990.95
2018-01-15T10:54:54.956Z,990.92
2018-01-15T10:55:54.961Z,990.91
2018-01-15T10:56:54.942Z,990.92
2018-01-15T10:57:54.933Z,990.91
2018-01-15T10:58:54.924Z,990.87
2018-01-15T10:59:54.917Z,990.84
2018-01-15T11:00:54.910Z,990.81
2018-01-15T11:01:54.901Z,990.74
2018-01-15T11:02:54.893Z,990.77
2018-01-15T11:03:54.885Z,990.72
2018-01-15T11:04:54.879Z,990.63
2018-01-15T11:05:54.870Z,990.63
2018-01-15T11:06:54.860Z,990.59
2018-01-15T11:07:54.853Z,990.56
2018-01-15T11:08:54.846Z,990.54
2018-01-15T11:09:54.838Z,990.49
2018-01-15T11:10:54.829Z,990.48
2018-01-15T11:11:54.841Z,990.47
2018-01-15T11:12:54.815Z,990.38
2018-01-15T11:13:54.806Z,990.41
2018-01-15T11:14:54.800Z,990.43
2018-01-15T11:15:54.790Z,990.37
2018-01-15T11:16:54.783Z,990.34
2018-01-15T11:17:54.773Z,990.29
2018-01-15T11:18:54.767Z,990.30
2018-01-15T11:19:54.767Z,990.28
2018-01-15T11:20:54.751Z,990.28
2018-01-15T11:21:54.744Z,990.38
2018-01-15T11:22:54.736Z,990.30
2018-01-15T11:23:54.727Z,990.20
2018-01-15T11:24:54.719Z,990.15
2018-01-15T11:25:54.712Z,990.13
2018-01-15T11:26:54.701Z,990.18
2018-01-15T11:27:54.696Z,990.16
2018-01-15T11:28:54.689Z,990.17
2018-01-15T11:29:54.677Z,990.14
2018-01-15T11:30:54.732Z,990.14
2018-01-15T11:31:54.664Z,990.06
2018-01-15T11:32:54.655Z,990.09
2018-01-15T11:33:54.648Z,990.05
2018-01-15T11:34:54.640Z,990.00
2018-01-15T11:35:54.632Z,990.02
2018-01-15T11:36:54.624Z,989.99
2018-01-15T11:37:54.614Z,989.94
2018-01-15T11:38:54.608Z,989.92
2018-01-15T11:39:54.599Z,989.94
2018-01-15T11:40:54.594Z,989.94
2018-01-15T11:41:54.584Z,989.95
2018-01-15T11:42:54.576Z,989.96
2018-01-15T11:43:54.569Z,989.89
2018-01-15T11:44:54.561Z,989.89
2018-01-15T11:45:54.554Z,989.82
2018-01-15T11:46:54.544Z,989.80
2018-01-15T11:47:54.536Z,989.77
2018-01-15T11:48:54.530Z,989.77
2018-01-15T11:49:54.522Z,989.68
2018-01-15T11:50:54.513Z,989.62
2018-01-15T11:51:54.506Z,989.65
2018-01-15T11:52:54.498Z,989.59
2018-01-15T11:53:54.488Z,989.53
2018-01-15T11:54:54.482Z,989.51
2018-01-15T11:55:54.474Z,989.48
2018-01-15T11:56:54.466Z,989.49
2018-01-15T11:57:54.463Z,989.43
2018-01-15T11:58:54.451Z,989.39
2018-01-15T11:59:54.442Z,989.30
2018-01-15T12:00:54.435Z,989.30
2018-01-15T12:01:54.425Z,989.25
2018-01-15T12:02:54.418Z,989.31
2018-01-15T12:03:54.410Z,989.26
2018-01-15T12:04:54.403Z,989.31
2018-01-15T12:05:54.394Z,989.22
2018-01-15T12:06:54.386Z,989.16
2018-01-15T12:07:54.414Z,989.13
2018-01-15T12:08:54.371Z,989.12
2018-01-15T12:09:54.359Z,989.07
2018-01-15T12:10:54.353Z,989.08
2018-01-15T12:11:54.347Z,989.05
2018-01-15T12:12:54.338Z,989.05
2018-01-15T12:13:54.330Z,989.03
2018-01-15T12:14:54.323Z,988.99
2018-01-15T12:15:54.315Z,988.97
2018-01-15T12:16:54.312Z,988.96
2018-01-15T12:17:54.297Z,988.96
2018-01-15T12:18:54.291Z,988.94
2018-01-15T12:19:54.284Z,988.87
2018-01-15T12:20:54.295Z,988.84
2018-01-15T12:21:54.268Z,988.83
2018-01-15T12:22:54.260Z,988.85
2018-01-15T12:23:54.253Z,988.82
2018-01-15T12:24:54.243Z,988.80
2018-01-15T12:25:54.236Z,988.76
2018-01-15T12:26:54.228Z,988.72
2018-01-15T12:27:54.219Z,988.67
2018-01-15T12:28:54.212Z,988.65